createdAt,value
2023-04-12T00:00:43.967Z,26.69
2023-04-12T00:01:44.020Z,26.65
2023-04-12T00:02:44.075Z,26.68
2023-04-12T00:03:44.217Z,26.65
2023-04-12T00:04:44.410Z,26.67
2023-04-12T00:05:44.099Z,26.67
2023-04-12T00:06:44.111Z,26.67
2023-04-12T00:07:44.140Z,26.68
2023-04-12T00:08:44.178Z,26.67
2023-04-12T00:09:44.208Z,26.67
2023-04-12T00:10:44.237Z,26.65
2023-04-12T00:11:44.299Z,26.67
2023-04-12T00:12:44.331Z,26.65
2023-04-12T00:13:44.352Z,26.65
2023-04-12T00:14:44.424Z,26.68
2023-04-12T00:15:44.471Z,26.65
2023-04-12T00:16:44.490Z,26.67
2023-04-12T00:17:44.572Z,26.65
2023-04-12T00:18:44.541Z,26.67
2023-04-12T00:19:44.578Z,26.65
2023-04-12T00:20:44.613Z,26.65
2023-04-12T00:21:44.632Z,26.62
2023-04-12T00:22:44.679Z,26.68
2023-04-12T00:23:44.707Z,26.65
2023-04-12T00:24:44.747Z,26.67
2023-04-12T00:25:44.781Z,26.68
2023-04-12T00:26:44.810Z,26.67
2023-04-12T00:27:44.830Z,26.68
2023-04-12T00:28:44.864Z,26.67
2023-04-12T00:29:44.879Z,26.67
2023-04-12T00:30:44.931Z,26.68
2023-04-12T00:31:45.075Z,26.68
2023-04-12T00:32:45.010Z,26.68
2023-04-12T00:33:45.013Z,26.67
2023-04-12T00:34:45.027Z,26.68
2023-04-12T00:35:45.115Z,26.67
2023-04-12T00:36:45.094Z,26.69
2023-04-12T00:37:45.123Z,26.65
2023-04-12T00:38:45.163Z,26.67
2023-04-12T00:39:45.184Z,26.68
2023-04-12T00:40:45.207Z,26.63
2023-04-12T00:41:45.266Z,26.67
2023-04-12T00:42:45.300Z,26.67
2023-04-12T00:43:45.309Z,26.63
2023-04-12T00:44:45.349Z,26.65
2023-04-12T00:45:45.373Z,26.68
2023-04-12T00:46:45.459Z,26.63
2023-04-12T00:47:45.475Z,26.62
2023-04-12T00:48:45.463Z,26.67
2023-04-12T00:49:45.480Z,26.67
2023-04-12T00:50:45.495Z,26.65
2023-04-12T00:51:45.534Z,26.67
2023-04-12T00:52:45.567Z,26.67
2023-04-12T00:53:45.578Z,26.67
2023-04-12T00:54:45.638Z,26.67
2023-04-12T00:55:45.679Z,26.65
2023-04-12T00:56:45.689Z,26.68
2023-04-12T00:57:45.733Z,26.65
2023-04-12T00:58:45.794Z,26.65
2023-04-12T00:59:45.814Z,26.65
2023-04-12T01:00:45.871Z,26.67
2023-04-12T01:01:45.893Z,26.65
2023-04-12T01:02:46.088Z,26.67
2023-04-12T01:03:46.130Z,26.65
2023-04-12T01:04:45.974Z,26.65
2023-04-12T01:05:46.026Z,26.67
2023-04-12T01:06:46.078Z,26.67
2023-04-12T01:07:46.081Z,26.63
2023-04-12T01:08:46.118Z,26.67
2023-04-12T01:09:46.148Z,26.63
2023-04-12T01:10:46.169Z,26.65
2023-04-12T01:11:46.212Z,26.65
2023-04-12T01:12:46.246Z,26.67
2023-04-12T01:13:46.252Z,26.63
2023-04-12T01:14:46.286Z,26.63
2023-04-12T01:15:46.305Z,26.67
2023-04-12T01:16:46.383Z,26.65
2023-04-12T01:17:46.447Z,26.63
2023-04-12T01:18:46.380Z,26.65
2023-04-12T01:19:46.397Z,26.63
2023-04-12T01:20:46.444Z,26.62
2023-04-12T01:21:46.481Z,26.65
2023-04-12T01:22:46.502Z,26.63
2023-04-12T01:23:46.541Z,26.67
2023-04-12T01:24:46.553Z,26.63
2023-04-12T01:25:46.616Z,26.63
2023-04-12T01:26:46.621Z,26.67
2023-04-12T01:27:46.654Z,26.62
2023-04-12T01:28:46.684Z,26.63
2023-04-12T01:29:46.725Z,26.67
2023-04-12T01:30:46.772Z,26.62
2023-04-12T01:31:46.852Z,26.65
2023-04-12T01:32:46.882Z,26.62
2023-04-12T01:33:46.888Z,26.65
2023-04-12T01:34:46.913Z,26.65
2023-04-12T01:35:46.989Z,26.63
2023-04-12T01:36:46.953Z,26.65
2023-04-12T01:37:47.004Z,26.63
2023-04-12T01:38:47.074Z,26.68
2023-04-12T01:39:47.059Z,26.63
2023-04-12T01:40:47.122Z,26.65
2023-04-12T01:41:47.144Z,26.62
2023-04-12T01:42:47.189Z,26.65
2023-04-12T01:43:47.203Z,26.63
2023-04-12T01:44:47.231Z,26.65
2023-04-12T01:45:47.353Z,26.63
2023-04-12T01:46:47.396Z,26.65
2023-04-12T01:47:47.392Z,26.65
2023-04-12T01:48:47.383Z,26.65
2023-04-12T01:49:47.438Z,26.65
2023-04-12T01:50:47.461Z,26.62
2023-04-12T01:51:47.507Z,26.67
2023-04-12T01:52:47.516Z,26.63
2023-04-12T01:53:47.559Z,26.63
2023-04-12T01:54:47.597Z,26.62
2023-04-12T01:55:47.630Z,26.65
2023-04-12T01:56:47.652Z,26.63
2023-04-12T01:57:47.688Z,26.63
2023-04-12T01:58:47.713Z,26.63
2023-04-12T01:59:47.742Z,26.63
2023-04-12T02:00:47.799Z,26.62
2023-04-12T02:01:47.853Z,26.62
2023-04-12T02:02:48.000Z,26.65
2023-04-12T02:03:47.973Z,26.65
2023-04-12T02:04:47.925Z,26.62
2023-04-12T02:05:47.939Z,26.65
2023-04-12T02:06:47.960Z,26.63
2023-04-12T02:07:47.995Z,26.65
2023-04-12T02:08:48.063Z,26.65
2023-04-12T02:09:48.067Z,26.63
2023-04-12T02:10:48.100Z,26.63
2023-04-12T02:11:48.146Z,26.63
2023-04-12T02:12:48.159Z,26.62
2023-04-12T02:13:48.185Z,26.63
2023-04-12T02:14:48.221Z,26.63
2023-04-12T02:15:48.261Z,26.63
2023-04-12T02:16:48.419Z,26.65
2023-04-12T02:17:48.373Z,26.63
2023-04-12T02:18:48.382Z,26.63
2023-04-12T02:19:48.412Z,26.65
2023-04-12T02:20:48.447Z,26.63
2023-04-12T02:21:48.471Z,26.62
2023-04-12T02:22:48.516Z,26.65
2023-04-12T02:23:48.527Z,26.62
2023-04-12T02:24:48.562Z,26.65
2023-04-12T02:25:48.610Z,26.62
2023-04-12T02:26:48.664Z,26.63
2023-04-12T02:27:48.684Z,26.61
2023-04-12T02:28:48.713Z,26.63
2023-04-12T02:29:48.743Z,26.63
2023-04-12T02:30:48.826Z,26.63
2023-04-12T02:31:48.823Z,26.62
2023-04-12T02:32:48.868Z,26.63
2023-04-12T02:33:48.917Z,26.63
2023-04-12T02:34:48.940Z,26.63
2023-04-12T02:35:49.028Z,26.62
2023-04-12T02:36:49.019Z,26.65
2023-04-12T02:37:49.062Z,26.63
2023-04-12T02:38:49.088Z,26.63
2023-04-12T02:39:49.140Z,26.62
2023-04-12T02:40:49.184Z,26.65
2023-04-12T02:41:49.234Z,26.63
2023-04-12T02:42:49.224Z,26.62
2023-04-12T02:43:49.352Z,26.62
2023-04-12T02:44:49.278Z,26.63
2023-04-12T02:45:49.409Z,26.63
2023-04-12T02:46:49.383Z,26.65
2023-04-12T02:47:49.470Z,26.61
2023-04-12T02:48:49.480Z,26.63
2023-04-12T02:49:49.502Z,26.63
2023-04-12T02:50:49.569Z,26.63
2023-04-12T02:51:49.589Z,26.62
2023-04-12T02:52:49.677Z,26.63
2023-04-12T02:53:49.657Z,26.62
2023-04-12T02:54:49.692Z,26.62
2023-04-12T02:55:49.722Z,26.62
2023-04-12T02:56:49.749Z,26.62
2023-04-12T02:57:49.755Z,26.63
2023-04-12T02:58:49.795Z,26.63
2023-04-12T02:59:49.799Z,26.61
2023-04-12T03:00:49.877Z,26.65
2023-04-12T03:01:49.962Z,26.61
2023-04-12T03:02:50.135Z,26.62
2023-04-12T03:03:50.114Z,26.61
2023-04-12T03:04:50.020Z,26.62
2023-04-12T03:05:50.050Z,26.62
2023-04-12T03:06:50.107Z,26.63
2023-04-12T03:07:50.130Z,26.62
2023-04-12T03:08:50.186Z,26.62
2023-04-12T03:09:50.212Z,26.62
2023-04-12T03:10:50.260Z,26.63
2023-04-12T03:11:50.315Z,26.62
2023-04-12T03:12:50.355Z,26.61
2023-04-12T03:13:50.394Z,26.61
2023-04-12T03:14:50.436Z,26.63
2023-04-12T03:15:50.468Z,26.63
2023-04-12T03:16:50.508Z,26.62
2023-04-12T03:17:50.538Z,26.62
2023-04-12T03:18:50.596Z,26.63
2023-04-12T03:19:50.559Z,26.62
2023-04-12T03:20:50.598Z,26.62
2023-04-12T03:21:50.636Z,26.59
2023-04-12T03:22:50.705Z,26.62
2023-04-12T03:23:50.700Z,26.61
2023-04-12T03:24:50.727Z,26.59
2023-04-12T03:25:50.766Z,26.62
2023-04-12T03:26:50.816Z,26.62
2023-04-12T03:27:50.820Z,26.61
2023-04-12T03:28:50.863Z,26.62
2023-04-12T03:29:50.883Z,26.61
2023-04-12T03:30:50.970Z,26.61
2023-04-12T03:31:50.940Z,26.62
2023-04-12T03:32:51.016Z,26.63
2023-04-12T03:33:51.021Z,26.61
2023-04-12T03:34:51.052Z,26.62
2023-04-12T03:35:51.124Z,26.59
2023-04-12T03:36:51.152Z,26.61
2023-04-12T03:37:51.165Z,26.62
2023-04-12T03:38:51.198Z,26.61
2023-04-12T03:39:51.240Z,26.63
2023-04-12T03:40:51.291Z,26.61
2023-04-12T03:41:51.346Z,26.63
2023-04-12T03:42:51.376Z,26.61
2023-04-12T03:43:51.432Z,26.61
2023-04-12T03:44:51.469Z,26.59
2023-04-12T03:45:51.522Z,26.61
2023-04-12T03:46:51.588Z,26.62
2023-04-12T03:47:51.625Z,26.61
2023-04-12T03:48:51.605Z,26.59
2023-04-12T03:50:06.060Z,26.62
2023-04-12T03:50:52.611Z,26.61
2023-04-12T03:51:51.645Z,26.59
2023-04-12T03:52:51.617Z,26.59
2023-04-12T03:53:51.605Z,26.61
2023-04-12T03:54:51.617Z,26.59
2023-04-12T03:55:51.596Z,26.59
2023-04-12T03:56:51.593Z,26.61
2023-04-12T03:57:51.562Z,26.59
2023-04-12T03:58:51.570Z,26.59
2023-04-12T03:59:51.572Z,26.59
2023-04-12T04:00:51.544Z,26.59
2023-04-12T04:01:51.566Z,26.59
2023-04-12T04:02:51.629Z,26.62
2023-04-12T04:03:51.623Z,26.61
2023-04-12T04:04:51.694Z,26.62
2023-04-12T04:05:51.621Z,26.62
2023-04-12T04:06:51.710Z,26.62
2023-04-12T04:07:51.689Z,26.59
2023-04-12T04:08:51.750Z,26.59
2023-04-12T04:09:51.788Z,26.61
2023-04-12T04:10:51.837Z,26.62
2023-04-12T04:11:51.876Z,26.61
2023-04-12T04:12:51.914Z,26.59
2023-04-12T04:13:51.973Z,26.59
2023-04-12T04:14:51.997Z,26.61
2023-04-12T04:15:52.065Z,26.61
2023-04-12T04:16:52.080Z,26.62
2023-04-12T04:17:52.161Z,26.61
2023-04-12T04:18:52.154Z,26.61
2023-04-12T04:19:52.193Z,26.59
2023-04-12T04:20:52.244Z,26.58
2023-04-12T04:21:52.295Z,26.61
2023-04-12T04:22:52.377Z,26.58
2023-04-12T04:23:52.391Z,26.59
2023-04-12T04:24:52.448Z,26.59
2023-04-12T04:25:52.472Z,26.59
2023-04-12T04:26:52.509Z,26.59
2023-04-12T04:27:52.554Z,26.59
2023-04-12T04:28:52.636Z,26.58
2023-04-12T04:29:52.630Z,26.59
2023-04-12T04:30:52.695Z,26.59
2023-04-12T04:31:52.766Z,26.59
2023-04-12T04:32:52.847Z,26.59
2023-04-12T04:33:52.781Z,26.59
2023-04-12T04:34:52.813Z,26.59
2023-04-12T04:35:52.878Z,26.58
2023-04-12T04:36:52.884Z,26.59
2023-04-12T04:37:52.902Z,26.58
2023-04-12T04:38:52.904Z,26.56
2023-04-12T04:39:52.959Z,26.61
2023-04-12T04:40:52.988Z,26.58
2023-04-12T04:41:53.025Z,26.56
2023-04-12T04:42:53.051Z,26.59
2023-04-12T04:43:53.053Z,26.58
2023-04-12T04:44:53.080Z,26.58
2023-04-12T04:45:53.152Z,26.58
2023-04-12T04:46:53.164Z,26.58
2023-04-12T04:47:53.189Z,26.58
2023-04-12T04:48:53.230Z,26.61
2023-04-12T04:49:53.228Z,26.56
2023-04-12T04:50:53.285Z,26.58
2023-04-12T04:51:53.408Z,26.58
2023-04-12T04:52:53.393Z,26.58
2023-04-12T04:53:53.389Z,26.58
2023-04-12T04:54:53.480Z,26.62
2023-04-12T04:55:53.510Z,26.58
2023-04-12T04:56:53.555Z,26.58
2023-04-12T04:57:53.595Z,26.59
2023-04-12T04:58:54.752Z,26.58
2023-04-12T04:59:53.625Z,26.58
2023-04-12T05:00:53.652Z,26.58
2023-04-12T05:01:53.693Z,26.58
2023-04-12T05:02:53.760Z,26.61
2023-04-12T05:03:53.737Z,26.58
2023-04-12T05:04:53.581Z,26.59
2023-04-12T05:05:53.590Z,26.59
2023-04-12T05:06:53.573Z,26.56
2023-04-12T05:07:53.553Z,26.59
2023-04-12T05:08:53.574Z,26.59
2023-04-12T05:09:53.537Z,26.59
2023-04-12T05:10:53.570Z,26.61
2023-04-12T05:11:53.542Z,26.61
2023-04-12T05:12:53.529Z,26.59
2023-04-12T05:13:53.527Z,26.62
2023-04-12T05:15:01.240Z,26.62
2023-04-12T05:15:54.490Z,26.61
2023-04-12T05:16:53.521Z,26.61
2023-04-12T05:17:53.890Z,26.61
2023-04-12T05:18:53.504Z,26.62
2023-04-12T05:19:53.486Z,26.62
2023-04-12T05:20:53.471Z,26.62
2023-04-12T05:21:53.502Z,26.62
2023-04-12T05:22:53.866Z,26.63
2023-04-12T05:23:53.463Z,26.62
2023-04-12T05:24:53.460Z,26.62
2023-04-12T05:25:53.474Z,26.62
2023-04-12T05:26:53.448Z,26.63
2023-04-12T05:27:53.848Z,26.62
2023-04-12T05:28:53.576Z,26.52
2023-04-12T05:29:53.473Z,26.47
2023-04-12T05:30:53.446Z,26.41
2023-04-12T05:31:53.459Z,26.35
2023-04-12T05:32:53.946Z,26.38
2023-04-12T05:33:53.464Z,26.30
2023-04-12T05:34:53.512Z,26.40
2023-04-12T05:35:53.649Z,26.37
2023-04-12T05:36:53.577Z,26.42
2023-04-12T05:37:53.599Z,26.51
2023-04-12T05:38:53.614Z,26.54
2023-04-12T05:39:53.662Z,26.59
2023-04-12T05:40:53.679Z,26.56
2023-04-12T05:41:53.720Z,26.67
2023-04-12T05:42:53.893Z,26.72
2023-04-12T05:43:53.862Z,26.79
2023-04-12T05:44:53.833Z,26.88
2023-04-12T05:45:53.871Z,26.92
2023-04-12T05:46:53.862Z,26.99
2023-04-12T05:47:53.894Z,27.06
2023-04-12T05:48:53.939Z,26.99
2023-04-12T05:49:53.941Z,27.00
2023-04-12T05:50:54.005Z,27.10
2023-04-12T05:51:54.063Z,27.14
2023-04-12T05:52:54.059Z,27.16
2023-04-12T05:53:54.119Z,27.19
2023-04-12T05:54:54.143Z,27.25
2023-04-12T05:55:54.168Z,27.19
2023-04-12T05:56:54.409Z,27.26
2023-04-12T05:57:54.259Z,27.29
2023-04-12T05:58:54.428Z,27.33
2023-04-12T05:59:54.323Z,27.34
2023-04-12T06:00:54.357Z,27.36
2023-04-12T06:01:54.376Z,27.37
2023-04-12T06:02:54.473Z,27.39
2023-04-12T06:03:54.544Z,27.43
2023-04-12T06:04:54.657Z,27.43
2023-04-12T06:05:54.473Z,27.43
2023-04-12T06:06:54.506Z,27.44
2023-04-12T06:07:54.532Z,27.46
2023-04-12T06:08:54.541Z,27.47
2023-04-12T06:09:54.574Z,27.49
2023-04-12T06:10:54.566Z,27.51
2023-04-12T06:11:54.604Z,27.46
2023-04-12T06:12:54.638Z,27.49
2023-04-12T06:13:54.629Z,27.49
2023-04-12T06:14:54.725Z,27.50
2023-04-12T06:15:54.687Z,27.54
2023-04-12T06:16:54.687Z,27.54
2023-04-12T06:17:54.737Z,27.50
2023-04-12T06:18:54.774Z,27.54
2023-04-12T06:19:54.747Z,27.53
2023-04-12T06:20:54.833Z,27.49
2023-04-12T06:21:54.842Z,27.51
2023-04-12T06:22:54.911Z,27.57
2023-04-12T06:23:54.915Z,27.60
2023-04-12T06:24:54.971Z,27.62
2023-04-12T06:25:55.016Z,27.67
2023-04-12T06:26:55.105Z,27.68
2023-04-12T06:27:55.145Z,27.68
2023-04-12T06:28:55.413Z,27.74
2023-04-12T06:29:55.235Z,27.75
2023-04-12T06:30:55.391Z,27.75
2023-04-12T06:31:55.278Z,27.68
2023-04-12T06:32:55.359Z,27.67
2023-04-12T06:33:55.341Z,27.65
2023-04-12T06:34:55.385Z,27.67
2023-04-12T06:35:55.435Z,27.65
2023-04-12T06:36:55.919Z,27.74
2023-04-12T06:37:55.476Z,27.75
2023-04-12T06:38:56.690Z,27.83
2023-04-12T06:39:55.526Z,27.83
2023-04-12T06:40:55.553Z,27.91
2023-04-12T06:41:55.607Z,27.89
2023-04-12T06:42:55.609Z,27.98
2023-04-12T06:43:55.646Z,28.04
2023-04-12T06:44:55.735Z,28.04
2023-04-12T06:45:55.710Z,28.07
2023-04-12T06:46:55.924Z,28.13
2023-04-12T06:47:55.827Z,28.20
2023-04-12T06:48:55.794Z,28.20
2023-04-12T06:49:56.223Z,28.26
2023-04-12T06:50:55.839Z,28.26
2023-04-12T06:51:55.835Z,28.34
2023-04-12T06:52:55.862Z,28.34
2023-04-12T06:53:56.119Z,28.34
2023-04-12T06:54:55.853Z,28.36
2023-04-12T06:55:55.889Z,28.42
2023-04-12T06:56:55.944Z,28.48
2023-04-12T06:57:55.927Z,28.48
2023-04-12T06:58:56.185Z,28.40
2023-04-12T06:59:55.982Z,28.38
2023-04-12T07:00:56.059Z,28.36
2023-04-12T07:01:56.055Z,28.45
2023-04-12T07:02:56.190Z,28.49
2023-04-12T07:03:56.213Z,28.35
2023-04-12T07:04:56.130Z,28.46
2023-04-12T07:05:56.154Z,28.49
2023-04-12T07:06:56.135Z,28.53
2023-04-12T07:07:56.394Z,28.53
2023-04-12T07:08:56.402Z,28.56
2023-04-12T07:09:56.202Z,28.58
2023-04-12T07:10:56.251Z,28.53
2023-04-12T07:11:56.276Z,28.58
2023-04-12T07:12:56.338Z,28.59
2023-04-12T07:13:56.369Z,28.58
2023-04-12T07:14:56.383Z,28.62
2023-04-12T07:15:56.439Z,28.63
2023-04-12T07:16:56.402Z,28.56
2023-04-12T07:17:56.954Z,28.59
2023-04-12T07:18:57.361Z,28.59
2023-04-12T07:19:56.480Z,28.56
2023-04-12T07:20:56.464Z,28.60
2023-04-12T07:21:56.482Z,28.64
2023-04-12T07:22:56.506Z,28.64
2023-04-12T07:23:56.919Z,28.66
2023-04-12T07:24:56.496Z,28.67
2023-04-12T07:25:56.509Z,28.46
2023-04-12T07:26:56.545Z,28.34
2023-04-12T07:27:56.737Z,28.11
2023-04-12T07:28:56.839Z,27.95
2023-04-12T07:29:56.670Z,27.67
2023-04-12T07:30:56.701Z,27.34
2023-04-12T07:31:56.736Z,27.41
2023-04-12T07:33:05.280Z,27.36
2023-04-12T07:33:57.819Z,27.34
2023-04-12T07:34:56.716Z,27.33
2023-04-12T07:35:56.773Z,27.34
2023-04-12T07:36:56.708Z,27.36
2023-04-12T07:37:56.720Z,27.39
2023-04-12T07:38:57.077Z,27.43
2023-04-12T07:39:56.707Z,27.46
2023-04-12T07:40:56.694Z,27.53
2023-04-12T07:41:56.674Z,27.56
2023-04-12T07:42:56.673Z,27.61
2023-04-12T07:43:56.640Z,27.62
2023-04-12T07:44:56.637Z,27.68
2023-04-12T07:45:56.740Z,27.72
2023-04-12T07:46:56.632Z,27.74
2023-04-12T07:47:56.723Z,27.81
2023-04-12T07:48:56.869Z,27.81
2023-04-12T07:49:56.683Z,27.84
2023-04-12T07:50:56.918Z,27.85
2023-04-12T07:51:56.761Z,27.88
2023-04-12T07:52:56.775Z,27.92
2023-04-12T07:53:57.071Z,27.92
2023-04-12T07:54:56.847Z,27.95
2023-04-12T07:55:56.874Z,27.92
2023-04-12T07:56:56.937Z,27.88
2023-04-12T07:57:56.949Z,27.89
2023-04-12T07:58:57.242Z,27.95
2023-04-12T07:59:57.037Z,27.97
2023-04-12T08:00:58.573Z,27.99
2023-04-12T08:01:57.176Z,28.04
2023-04-12T08:02:57.283Z,28.07
2023-04-12T08:03:57.481Z,28.07
2023-04-12T08:04:57.016Z,28.09
2023-04-12T08:05:57.037Z,28.13
2023-04-12T08:06:57.142Z,28.12
2023-04-12T08:07:57.501Z,28.15
2023-04-12T08:08:57.060Z,28.16
2023-04-12T08:09:57.461Z,28.16
2023-04-12T08:10:56.981Z,28.19
2023-04-12T08:11:56.958Z,28.20
2023-04-12T08:12:56.971Z,28.15
2023-04-12T08:13:57.117Z,28.19
2023-04-12T08:14:56.969Z,28.18
2023-04-12T08:15:56.950Z,28.18
2023-04-12T08:16:56.939Z,28.19
2023-04-12T08:17:56.945Z,28.19
2023-04-12T08:18:56.918Z,28.19
2023-04-12T08:19:56.928Z,28.08
2023-04-12T08:20:56.939Z,28.08
2023-04-12T08:21:56.909Z,28.02
2023-04-12T08:24:15.932Z,27.95
2023-04-12T08:25:15.884Z,28.01
2023-04-12T08:26:15.906Z,28.05
2023-04-12T08:27:15.864Z,28.09
2023-04-12T08:28:15.879Z,28.13
2023-04-12T08:29:15.868Z,28.15
2023-04-12T08:30:15.874Z,28.16
2023-04-12T08:31:15.928Z,28.12
2023-04-12T08:32:15.902Z,28.13
2023-04-12T08:33:15.903Z,28.11
2023-04-12T08:34:15.849Z,28.04
2023-04-12T08:35:15.823Z,27.98
2023-04-12T08:36:15.851Z,27.92
2023-04-12T08:37:15.802Z,27.99
2023-04-12T08:38:15.813Z,27.99
2023-04-12T08:39:15.796Z,27.92
2023-04-12T08:40:15.886Z,27.94
2023-04-12T08:41:15.940Z,27.98
2023-04-12T08:42:15.779Z,28.01
2023-04-12T08:43:15.758Z,28.04
2023-04-12T08:44:15.773Z,28.08
2023-04-12T08:45:15.758Z,28.09
2023-04-12T08:46:16.088Z,28.12
2023-04-12T08:47:15.738Z,28.13
2023-04-12T08:48:15.753Z,28.15
2023-04-12T08:49:15.737Z,28.18
2023-04-12T08:50:15.740Z,28.16
2023-04-12T08:51:15.759Z,28.16
2023-04-12T08:52:15.717Z,28.22
2023-04-12T08:53:15.707Z,28.22
2023-04-12T08:54:15.705Z,28.23
2023-04-12T08:55:15.739Z,28.22
2023-04-12T08:56:15.688Z,28.23
2023-04-12T08:57:15.675Z,28.23
2023-04-12T08:58:15.698Z,28.26
2023-04-12T08:59:15.656Z,28.28
2023-04-12T09:00:15.655Z,28.26
2023-04-12T09:01:15.666Z,28.28
2023-04-12T09:02:15.836Z,28.28
2023-04-12T09:03:15.926Z,28.26
2023-04-12T09:04:15.761Z,28.25
2023-04-12T09:05:15.688Z,28.26
2023-04-12T09:06:15.670Z,28.22
2023-04-12T09:07:15.603Z,28.25
2023-04-12T09:08:16.089Z,28.26
2023-04-12T09:09:15.601Z,28.28
2023-04-12T09:10:16.114Z,28.26
2023-04-12T09:11:15.664Z,28.28
2023-04-12T09:12:15.727Z,28.28
2023-04-12T09:13:15.709Z,28.28
2023-04-12T09:14:15.751Z,28.26
2023-04-12T09:15:15.814Z,28.26
2023-04-12T09:16:15.845Z,28.29
2023-04-12T09:17:15.891Z,28.32
2023-04-12T09:18:17.379Z,28.30
2023-04-12T09:19:15.953Z,28.35
2023-04-12T09:20:15.946Z,28.35
2023-04-12T09:21:15.973Z,28.35
2023-04-12T09:22:16.060Z,28.35
2023-04-12T09:23:16.027Z,28.36
2023-04-12T09:24:16.039Z,28.34
2023-04-12T09:25:16.101Z,28.13
2023-04-12T09:26:16.080Z,28.05
2023-04-12T09:27:16.116Z,28.01
2023-04-12T09:28:16.149Z,27.80
2023-04-12T09:29:16.209Z,27.68
2023-04-12T09:30:16.199Z,27.57
2023-04-12T09:31:16.291Z,27.62
2023-04-12T09:32:16.296Z,27.65
2023-04-12T09:33:16.288Z,27.70
2023-04-12T09:34:16.254Z,27.74
2023-04-12T09:35:16.273Z,27.78
2023-04-12T09:36:16.317Z,27.84
2023-04-12T09:37:16.360Z,27.83
2023-04-12T09:38:16.404Z,27.88
2023-04-12T09:39:16.376Z,27.80
2023-04-12T09:40:16.429Z,27.80
2023-04-12T09:41:18.088Z,27.70
2023-04-12T09:42:32.608Z,27.62
2023-04-12T09:43:17.485Z,27.68
2023-04-12T09:44:16.467Z,27.71
2023-04-12T09:45:16.442Z,27.78
2023-04-12T09:46:16.476Z,27.83
2023-04-12T09:47:16.428Z,27.80
2023-04-12T09:48:16.566Z,27.77
2023-04-12T09:49:16.399Z,27.75
2023-04-12T09:50:16.605Z,27.56
2023-04-12T09:51:16.415Z,27.70
2023-04-12T09:52:16.396Z,27.64
2023-04-12T09:53:16.516Z,27.58
2023-04-12T09:54:16.398Z,27.53
2023-04-12T09:55:16.360Z,27.46
2023-04-12T09:56:16.349Z,27.39
2023-04-12T09:57:16.327Z,27.36
2023-04-12T09:58:16.336Z,27.34
2023-04-12T09:59:16.365Z,27.37
2023-04-12T10:00:16.396Z,27.41
2023-04-12T10:01:17.580Z,27.33
2023-04-12T10:02:16.549Z,27.43
2023-04-12T10:03:16.500Z,27.43
2023-04-12T10:04:16.747Z,27.47
2023-04-12T10:05:16.685Z,27.56
2023-04-12T10:06:16.486Z,27.60
2023-04-12T10:07:16.555Z,27.67
2023-04-12T10:08:16.584Z,27.71
2023-04-12T10:09:16.608Z,27.75
2023-04-12T10:10:16.719Z,27.87
2023-04-12T10:11:17.132Z,27.88
2023-04-12T10:12:16.727Z,27.94
2023-04-12T10:13:17.116Z,27.97
2023-04-12T10:14:17.717Z,27.98
2023-04-12T10:15:17.677Z,28.07
2023-04-12T10:16:16.891Z,28.12
2023-04-12T10:17:16.809Z,28.16
2023-04-12T10:18:16.884Z,28.22
2023-04-12T10:19:16.872Z,28.28
2023-04-12T10:20:17.132Z,28.26
2023-04-12T10:21:17.118Z,28.18
2023-04-12T10:22:16.982Z,28.15
2023-04-12T10:23:17.000Z,28.16
2023-04-12T10:24:17.071Z,28.11
2023-04-12T10:25:17.098Z,28.11
2023-04-12T10:26:17.102Z,28.05
2023-04-12T10:27:17.108Z,28.02
2023-04-12T10:28:17.168Z,28.01
2023-04-12T10:29:17.206Z,27.97
2023-04-12T10:30:17.237Z,27.97
2023-04-12T10:31:17.356Z,27.97
2023-04-12T10:32:17.301Z,27.95
2023-04-12T10:33:17.385Z,27.91
2023-04-12T10:34:17.399Z,27.87
2023-04-12T10:35:17.451Z,27.87
2023-04-12T10:36:17.602Z,27.83
2023-04-12T10:37:17.669Z,27.84
2023-04-12T10:38:17.645Z,27.84
2023-04-12T10:39:17.669Z,27.80
2023-04-12T10:40:17.744Z,27.80
2023-04-12T10:41:18.181Z,27.77
2023-04-12T10:42:17.784Z,27.77
2023-04-12T10:43:18.140Z,27.75
2023-04-12T10:44:17.782Z,27.75
2023-04-12T10:45:17.791Z,27.75
2023-04-12T10:46:17.905Z,27.78
2023-04-12T10:47:17.929Z,27.75
2023-04-12T10:48:17.859Z,27.78
2023-04-12T10:49:17.861Z,27.78
2023-04-12T10:50:17.931Z,27.80
2023-04-12T10:51:18.188Z,27.78
2023-04-12T10:52:17.988Z,27.80
2023-04-12T10:53:18.024Z,27.78
2023-04-12T10:54:18.088Z,27.77
2023-04-12T10:55:18.075Z,27.77
2023-04-12T10:56:18.179Z,27.81
2023-04-12T10:57:18.198Z,27.83
2023-04-12T10:58:18.224Z,27.83
2023-04-12T10:59:18.304Z,27.81
2023-04-12T11:00:18.373Z,27.81
2023-04-12T11:01:18.930Z,27.84
2023-04-12T11:02:18.483Z,27.85
2023-04-12T11:03:18.731Z,27.85
2023-04-12T11:04:18.632Z,27.83
2023-04-12T11:05:18.564Z,27.85
2023-04-12T11:06:26.999Z,27.84
2023-04-12T11:07:19.562Z,27.88
2023-04-12T11:08:18.598Z,27.87
2023-04-12T11:09:18.554Z,27.87
2023-04-12T11:10:18.567Z,27.88
2023-04-12T11:11:18.630Z,27.88
2023-04-12T11:12:18.559Z,27.89
2023-04-12T11:13:18.596Z,27.88
2023-04-12T11:14:18.517Z,27.85
2023-04-12T11:15:18.554Z,27.85
2023-04-12T11:16:18.755Z,27.85
2023-04-12T11:17:18.644Z,27.87
2023-04-12T11:18:18.552Z,27.85
2023-04-12T11:19:18.656Z,27.87
2023-04-12T11:20:18.485Z,27.88
2023-04-12T11:21:18.692Z,27.88
2023-04-12T11:22:18.570Z,27.88
2023-04-12T11:23:18.623Z,27.87
2023-04-12T11:24:18.678Z,27.89
2023-04-12T11:25:18.699Z,27.88
2023-04-12T11:26:18.743Z,27.88
2023-04-12T11:27:18.783Z,27.88
2023-04-12T11:28:28.555Z,27.85
2023-04-12T11:29:19.806Z,27.88
2023-04-12T11:30:18.811Z,27.87
2023-04-12T11:31:18.834Z,27.85
2023-04-12T11:32:18.844Z,27.85
2023-04-12T11:33:18.777Z,27.84
2023-04-12T11:34:18.792Z,27.87
2023-04-12T11:35:18.776Z,27.87
2023-04-12T11:36:18.784Z,27.87
2023-04-12T11:37:18.755Z,27.87
2023-04-12T11:38:18.740Z,27.85
2023-04-12T11:39:18.766Z,27.88
2023-04-12T11:40:18.736Z,27.85
2023-04-12T11:41:18.803Z,27.87
2023-04-12T11:42:18.760Z,27.87
2023-04-12T11:43:18.771Z,27.85
2023-04-12T11:44:18.836Z,27.88
2023-04-12T11:45:18.848Z,27.88
2023-04-12T11:46:18.939Z,27.88
2023-04-12T11:47:18.937Z,27.85
2023-04-12T11:48:19.007Z,27.87
2023-04-12T11:49:19.039Z,27.88
2023-04-12T11:50:19.037Z,27.87
2023-04-12T11:51:19.106Z,27.88
2023-04-12T11:52:19.224Z,27.88
2023-04-12T11:53:19.153Z,27.87
2023-04-12T11:54:19.197Z,27.85
2023-04-12T11:55:19.234Z,27.87
2023-04-12T11:56:19.276Z,27.87
2023-04-12T11:57:19.298Z,27.85
2023-04-12T11:58:19.349Z,27.85
2023-04-12T11:59:19.397Z,27.85
2023-04-12T12:00:19.388Z,27.85
2023-04-12T12:01:19.437Z,27.87
2023-04-12T12:02:23.485Z,27.85
2023-04-12T12:03:19.597Z,27.85
2023-04-12T12:04:19.664Z,27.85
2023-04-12T12:05:19.741Z,27.87
2023-04-12T12:06:19.858Z,27.88
2023-04-12T12:07:19.567Z,27.89
2023-04-12T12:08:19.425Z,27.89
2023-04-12T12:09:19.422Z,27.88
2023-04-12T12:10:36.627Z,27.91
2023-04-12T12:11:20.464Z,27.92
2023-04-12T12:12:19.396Z,27.89
2023-04-12T12:13:19.383Z,27.91
2023-04-12T12:14:19.404Z,27.88
2023-04-12T12:15:19.380Z,27.91
2023-04-12T12:16:19.400Z,27.91
2023-04-12T12:17:19.445Z,27.89
2023-04-12T12:18:19.350Z,27.91
2023-04-12T12:19:19.392Z,27.89
2023-04-12T12:20:19.348Z,27.88
2023-04-12T12:21:19.334Z,27.91
2023-04-12T12:22:19.340Z,27.89
2023-04-12T12:23:19.350Z,27.89
2023-04-12T12:24:19.389Z,27.92
2023-04-12T12:25:19.414Z,27.89
2023-04-12T12:26:19.634Z,27.91
2023-04-12T12:27:19.486Z,27.87
2023-04-12T12:28:19.582Z,27.88
2023-04-12T12:29:19.521Z,27.85
2023-04-12T12:30:19.534Z,27.85
2023-04-12T12:31:19.641Z,27.84
2023-04-12T12:32:19.670Z,27.84
2023-04-12T12:33:19.705Z,27.83
2023-04-12T12:34:19.820Z,27.84
2023-04-12T12:35:19.801Z,27.84
2023-04-12T12:36:19.824Z,27.83
2023-04-12T12:37:19.870Z,27.83
2023-04-12T12:38:19.941Z,27.81
2023-04-12T12:39:19.933Z,27.84
2023-04-12T12:40:19.973Z,27.80
2023-04-12T12:41:20.041Z,27.81
2023-04-12T12:42:20.075Z,27.78
2023-04-12T12:43:20.122Z,27.78
2023-04-12T12:44:20.149Z,27.77
2023-04-12T12:45:20.181Z,27.81
2023-04-12T12:46:20.244Z,27.80
2023-04-12T12:47:20.272Z,27.81
2023-04-12T12:48:20.390Z,27.83
2023-04-12T12:49:20.778Z,27.78
2023-04-12T12:50:22.621Z,27.75
2023-04-12T12:51:20.458Z,27.77
2023-04-12T12:52:20.371Z,27.78
2023-04-12T12:53:22.564Z,27.80
2023-04-12T12:54:36.806Z,27.78